Time;durP1;ratioP1;P1;durP2;ratioP2;P2;SDS_P1;SDS_P2;PMS_P1;PMS_P2;Temp;Humidity;BMP_temperature;BMP_pressure;BME280_temperature;BME280_humidity;BME280_pressure;Samples;Min_cycle;Max_cycle;Signal;HPM_P1;HPM_P2
2021/07/27 00:00:34;;;;;;;12.65;8.00;;;;;;;27.87;40.44;94306.47;4983263;28;20822;-76
2021/07/27 00:03:00;;;;;;;12.68;8.32;;;;;;;27.72;40.29;94301.38;4988123;28;20033;-75
2021/07/27 00:05:27;;;;;;;11.23;8.57;;;;;;;27.81;40.34;94310.72;4982423;28;20694;-76
2021/07/27 00:07:52;;;;;;;15.65;9.40;;;;;;;27.60;40.87;94286.25;4989487;28;20320;-76
2021/07/27 00:10:18;;;;;;;12.57;8.85;;;;;;;27.58;40.93;94307.56;4987667;28;20045;-76
2021/07/27 00:12:43;;;;;;;11.65;8.98;;;;;;;27.45;40.65;94287.34;4985743;28;20042;-76
2021/07/27 00:15:09;;;;;;;11.48;8.30;;;;;;;27.47;41.07;94304.00;4988819;28;20057;-75
2021/07/27 00:17:35;;;;;;;13.27;9.13;;;;;;;27.45;41.18;94315.25;4982599;28;20443;-75
2021/07/27 00:20:00;;;;;;;14.85;9.05;;;;;;;27.42;41.45;94304.38;4980377;28;20038;-76
2021/07/27 00:22:25;;;;;;;11.50;9.13;;;;;;;27.49;41.82;94307.16;4988750;28;20447;-75
2021/07/27 00:24:53;;;;;;;15.88;10.07;;;;;;;27.48;41.97;94300.91;4988164;28;20084;-77
2021/07/27 00:27:19;;;;;;;12.25;8.90;;;;;;;27.49;41.58;94307.16;4984391;28;20050;-76
2021/07/27 00:29:44;;;;;;;12.15;9.52;;;;;;;27.38;41.33;94300.88;4986965;28;20052;-76
2021/07/27 00:32:10;;;;;;;15.52;9.38;;;;;;;27.35;41.55;94296.22;4988478;28;20130;-76
2021/07/27 00:34:35;;;;;;;11.00;8.43;;;;;;;27.38;40.95;94296.22;4987019;28;20068;-75
2021/07/27 00:37:00;;;;;;;16.30;9.63;;;;;;;27.41;41.66;94311.75;4986274;28;20365;-76
2021/07/27 00:39:26;;;;;;;18.65;8.82;;;;;;;27.36;41.96;94308.63;4986894;28;20042;-75
2021/07/27 00:41:52;;;;;;;12.88;8.60;;;;;;;27.34;42.23;94310.94;4984680;28;20025;-76
2021/07/27 00:44:18;;;;;;;11.65;9.25;;;;;;;27.32;42.27;94310.56;4983882;28;20084;-76
2021/07/27 00:46:43;;;;;;;14.48;8.88;;;;;;;27.24;41.99;94292.66;4988291;28;20121;-75
2021/07/27 00:49:09;;;;;;;15.90;8.77;;;;;;;27.32;41.88;94305.13;4987502;28;20623;-75
2021/07/27 00:51:34;;;;;;;13.88;8.52;;;;;;;27.36;41.54;94309.41;4986549;28;20479;-75
2021/07/27 00:54:02;;;;;;;12.38;8.52;;;;;;;27.37;41.35;94299.31;4986147;28;20030;-76
2021/07/27 00:56:27;;;;;;;13.48;8.45;;;;;;;27.53;41.06;94308.72;4987273;28;20109;-75
2021/07/27 00:58:53;;;;;;;18.27;9.10;;;;;;;27.55;41.17;94305.63;4985050;28;20416;-76
2021/07/27 01:01:19;;;;;;;13.75;8.43;;;;;;;27.51;41.05;94307.56;4987585;28;20037;-75
2021/07/27 01:03:45;;;;;;;11.55;8.60;;;;;;;27.45;40.98;94300.91;4987509;28;20045;-75
2021/07/27 01:06:12;;;;;;;15.18;9.25;;;;;;;27.34;40.91;94300.06;4986112;28;20096;-76
2021/07/27 01:08:38;;;;;;;16.02;9.80;;;;;;;27.32;41.08;94288.84;4988699;28;20077;-75
2021/07/27 01:11:04;;;;;;;12.63;8.35;;;;;;;27.42;41.34;94324.16;4986414;28;20070;-76
2021/07/27 01:13:30;;;;;;;13.60;8.93;;;;;;;27.35;41.02;94307.06;4987552;28;20038;-76
2021/07/27 01:16:00;;;;;;;8.63;7.50;;;;;;;27.30;41.06;94299.28;4985068;28;20507;-75
2021/07/27 01:18:29;;;;;;;10.48;8.65;;;;;;;27.40;41.02;94314.84;4982514;28;20540;-75
2021/07/27 01:37:43;;;;;;;14.10;9.00;;;;;;;27.20;42.01;94310.88;4987182;28;20049;-77
2021/07/27 01:40:09;;;;;;;11.82;8.20;;;;;;;27.22;42.02;94314.00;4986918;28;20041;-76
2021/07/27 01:42:39;;;;;;;13.82;8.57;;;;;;;27.04;41.80;94298.41;4984461;28;20045;-75
2021/07/27 01:45:11;;;;;;;21.73;8.75;;;;;;;27.10;41.72;94310.47;4984201;28;20070;-75
2021/07/27 01:47:36;;;;;;;14.18;8.43;;;;;;;27.00;42.05;94292.19;5002339;28;20141;-75
2021/07/27 01:50:02;;;;;;;13.13;8.23;;;;;;;27.11;42.24;94300.38;4982817;28;20452;-76
2021/07/27 01:52:28;;;;;;;14.52;8.73;;;;;;;27.09;42.09;94308.13;4984636;28;20050;-75
2021/07/27 01:54:55;;;;;;;12.48;9.15;;;;;;;26.94;41.89;94280.16;4985156;28;20052;-76
2021/07/27 01:57:22;;;;;;;10.68;8.15;;;;;;;27.06;41.66;94308.88;4984500;28;20050;-75
2021/07/27 01:59:50;;;;;;;12.50;8.13;;;;;;;27.02;42.11;94310.81;4987600;28;20058;-76
2021/07/27 02:02:15;;;;;;;10.93;9.02;;;;;;;26.91;42.29;94291.75;4986039;28;20038;-75
2021/07/27 02:04:40;;;;;;;10.13;8.80;;;;;;;26.73;42.06;94277.31;4985244;28;20740;-75
2021/07/27 02:07:07;;;;;;;9.45;8.27;;;;;;;26.77;42.30;94296.28;4981060;28;20069;-75
2021/07/27 02:09:36;;;;;;;11.52;9.50;;;;;;;26.92;42.11;94317.72;4984598;28;20568;-76
2021/07/27 02:12:02;;;;;;;12.73;8.63;;;;;;;26.86;42.75;94316.53;4987452;28;20033;-76
2021/07/27 02:15:14;;;;;;;13.43;8.77;;;;;;;26.77;43.23;94326.91;4985956;28;20467;-76
2021/07/27 02:17:14;;;;;;;12.68;9.55;;;;;;;26.61;43.00;94299.28;4986064;28;20065;-76
2021/07/27 02:19:40;;;;;;;12.13;9.23;;;;;;;26.70;43.34;94316.00;4981688;28;20433;-75
2021/07/27 02:22:05;;;;;;;12.23;8.75;;;;;;;26.58;43.41;94311.69;4984193;28;20125;-76
2021/07/27 02:24:31;;;;;;;10.88;8.40;;;;;;;26.65;42.97;94319.06;4984886;28;20271;-75
2021/07/27 02:26:56;;;;;;;11.50;8.38;;;;;;;26.57;42.95;94306.63;4983619;28;20045;-76
2021/07/27 02:29:21;;;;;;;14.00;8.82;;;;;;;26.53;43.30;94297.69;4987202;28;20178;-76
2021/07/27 02:31:47;;;;;;;11.63;9.65;;;;;;;26.52;43.51;94312.41;4987376;28;20420;-75
2021/07/27 02:34:12;;;;;;;11.52;9.20;;;;;;;26.45;43.80;94306.91;4983730;28;20069;-75
2021/07/27 02:36:38;;;;;;;12.43;8.65;;;;;;;26.41;44.16;94306.13;4982942;28;20053;-76
2021/07/27 02:39:06;;;;;;;15.55;10.63;;;;;;;26.44;44.05;94306.13;4985295;28;20121;-75
2021/07/27 02:41:32;;;;;;;14.95;9.93;;;;;;;26.40;43.86;94312.69;4983756;28;20077;-76
2021/07/27 02:43:58;;;;;;;10.55;8.55;;;;;;;26.33;44.04;94293.69;4982586;28;20154;-75
2021/07/27 02:46:24;;;;;;;13.80;9.10;;;;;;;26.39;43.86;94290.22;4986557;28;20042;-75
2021/07/27 02:48:49;;;;;;;18.73;10.15;;;;;;;26.47;43.65;94312.75;4984486;28;20092;-75
2021/07/27 02:51:14;;;;;;;19.35;9.63;;;;;;;26.47;44.02;94307.34;4981409;28;20046;-76
2021/07/27 02:53:40;;;;;;;16.08;9.23;;;;;;;26.35;44.13;94305.69;4983547;28;20026;-75
2021/07/27 02:56:05;;;;;;;13.15;8.02;;;;;;;26.35;44.48;94318.44;4986672;28;20753;-75
2021/07/27 02:58:32;;;;;;;20.25;9.82;;;;;;;26.21;44.81;94306.34;4982214;28;20042;-75
2021/07/27 03:01:02;;;;;;;22.13;10.63;;;;;;;26.18;44.58;94309.03;4983136;28;20046;-76
2021/07/27 03:03:28;;;;;;;9.90;8.82;;;;;;;26.32;44.26;94327.34;4983826;28;20042;-75
2021/07/27 03:06:00;;;;;;;14.73;9.05;;;;;;;26.22;44.23;94313.34;4986100;28;20480;-76
2021/07/27 03:08:45;;;;;;;13.52;9.60;;;;;;;26.32;44.48;94327.34;4989819;28;20446;-76
2021/07/27 03:11:10;;;;;;;16.95;9.80;;;;;;;26.24;44.39;94318.38;4986285;28;20046;-76
2021/07/27 03:13:36;;;;;;;18.20;10.65;;;;;;;26.16;44.40;94306.66;4985285;28;20038;-75
2021/07/27 03:16:01;;;;;;;15.48;9.32;;;;;;;26.26;44.53;94324.97;4984158;28;20073;-75
2021/07/27 03:18:26;;;;;;;27.15;10.50;;;;;;;26.18;44.87;94322.56;4985251;28;20046;-76
2021/07/27 03:20:52;;;;;;;17.67;9.75;;;;;;;25.96;44.76;94297.22;4988365;28;20113;-76
2021/07/27 03:23:26;;;;;;;21.75;10.35;;;;;;;26.13;44.86;94329.09;4988523;28;20038;-76
2021/07/27 03:25:51;;;;;;;18.75;9.32;;;;;;;26.22;44.51;94324.19;4988633;28;20046;-74
2021/07/27 03:28:17;;;;;;;21.33;10.77;;;;;;;26.10;44.76;94310.09;4987710;28;20295;-75
2021/07/27 03:30:43;;;;;;;29.80;10.45;;;;;;;26.10;45.23;94324.41;4989538;28;20445;-75
2021/07/27 03:33:09;;;;;;;18.05;9.90;;;;;;;26.15;44.88;94332.19;4990777;28;20030;-75
2021/07/27 03:35:34;;;;;;;21.13;9.93;;;;;;;26.08;45.26;94328.66;4985170;28;20582;-75
2021/07/27 03:38:03;;;;;;;20.98;9.93;;;;;;;26.11;45.30;94333.31;4989635;28;20049;-76
2021/07/27 03:40:29;;;;;;;17.88;10.15;;;;;;;26.07;45.45;94329.81;4987801;28;20505;-75
2021/07/27 03:42:54;;;;;;;15.52;9.60;;;;;;;26.02;45.41;94325.50;4982227;28;20046;-76
2021/07/27 03:45:19;;;;;;;18.00;10.68;;;;;;;25.98;45.46;94322.00;4986367;28;20049;-76
2021/07/27 03:47:45;;;;;;;16.10;10.45;;;;;;;26.03;45.29;94340.63;4993112;28;20022;-76
2021/07/27 03:50:11;;;;;;;13.00;9.60;;;;;;;26.04;45.39;94328.63;4986788;28;20053;-74
2021/07/27 03:52:37;;;;;;;17.23;9.73;;;;;;;26.11;45.51;94339.53;4986152;28;20508;-75
2021/07/27 03:55:02;;;;;;;16.48;9.88;;;;;;;26.18;45.46;94341.53;4987266;28;20045;-75
2021/07/27 03:57:28;;;;;;;15.05;10.40;;;;;;;26.10;45.48;94327.13;4985723;28;20105;-76
2021/07/27 03:59:53;;;;;;;11.98;8.85;;;;;;;26.12;45.47;94334.88;4989418;28;20036;-75
2021/07/27 04:02:19;;;;;;;13.88;9.25;;;;;;;26.18;45.31;94328.75;4989218;28;20535;-76
2021/07/27 04:04:47;;;;;;;16.13;9.95;;;;;;;26.02;45.56;94317.38;4988262;28;20508;-75
2021/07/27 04:07:14;;;;;;;14.05;9.15;;;;;;;26.26;45.47;94351.28;4986287;28;20038;-75
2021/07/27 04:09:40;;;;;;;13.43;9.43;;;;;;;26.26;46.11;94346.66;4988043;28;20034;-76
2021/07/27 04:12:05;;;;;;;12.60;9.55;;;;;;;26.28;46.27;94347.06;4984214;28;20034;-75
2021/07/27 04:14:33;;;;;;;11.43;9.88;;;;;;;26.26;45.94;94335.81;4987324;28;20072;-75
2021/07/27 04:16:59;;;;;;;13.27;10.40;;;;;;;26.34;45.82;94333.94;4987749;28;20129;-76
2021/07/27 04:19:24;;;;;;;17.58;9.77;;;;;;;26.57;45.12;94350.00;4986425;28;20511;-76
2021/07/27 04:21:49;;;;;;;15.98;9.82;;;;;;;26.54;46.08;94348.03;4984483;28;20054;-75
2021/07/27 04:24:17;;;;;;;17.13;10.57;;;;;;;26.64;45.92;94350.03;4987916;28;20054;-75
2021/07/27 04:26:42;;;;;;;17.90;10.23;;;;;;;26.73;46.13;94353.22;4982443;28;20026;-75
2021/07/27 04:29:08;;;;;;;14.57;10.57;;;;;;;26.68;45.28;94337.31;4984218;28;20049;-75
2021/07/27 04:31:33;;;;;;;18.45;10.98;;;;;;;26.86;45.74;94359.91;4988191;28;20038;-75
2021/07/27 04:33:59;;;;;;;16.98;11.70;;;;;;;26.89;45.36;94347.53;4990665;28;20125;-75
2021/07/27 04:36:24;;;;;;;12.57;9.77;;;;;;;27.00;45.64;94342.94;4988632;28;20129;-74
2021/07/27 04:38:49;;;;;;;15.68;11.57;;;;;;;27.05;45.19;94346.09;4988027;28;20033;-76
2021/07/27 04:41:15;;;;;;;13.68;10.88;;;;;;;27.17;44.90;94340.31;4990171;28;20030;-75
2021/07/27 04:43:40;;;;;;;20.80;12.82;;;;;;;27.28;45.21;94345.03;4989173;28;20052;-75
2021/07/27 04:46:08;;;;;;;16.38;12.95;;;;;;;27.23;45.08;94342.66;4987815;28;20034;-75
2021/07/27 04:48:35;;;;;;;14.32;12.15;;;;;;;27.29;46.01;94343.88;4983769;28;20053;-76
2021/07/27 04:51:01;;;;;;;17.20;13.13;;;;;;;27.36;45.60;94330.34;4983825;28;20037;-75
2021/07/27 04:53:29;;;;;;;17.63;12.88;;;;;;;27.41;45.48;94332.69;4985822;28;20397;-75
2021/07/27 04:55:59;;;;;;;17.27;11.82;;;;;;;27.40;44.69;94336.56;4988362;28;20707;-75
2021/07/27 04:58:24;;;;;;;15.27;12.43;;;;;;;27.29;44.81;94339.22;4986350;28;20049;-75
2021/07/27 05:00:50;;;;;;;18.48;12.73;;;;;;;27.19;44.69;94339.16;4984861;28;20034;-75
2021/07/27 05:03:15;;;;;;;17.13;13.43;;;;;;;27.46;45.00;94338.53;4985869;28;20042;-77
2021/07/27 05:05:41;;;;;;;14.43;11.95;;;;;;;27.54;43.92;94337.41;4985205;28;20663;-75
2021/07/27 05:08:06;;;;;;;17.13;13.43;;;;;;;27.52;43.92;94318.00;4986747;28;20034;-75
2021/07/27 05:10:31;;;;;;;14.57;11.40;;;;;;;27.82;43.63;94355.72;4987537;28;20564;-75
2021/07/27 05:12:58;;;;;;;17.55;12.52;;;;;;;27.82;42.95;94344.88;4986247;28;20501;-75
2021/07/27 05:15:24;;;;;;;21.63;13.00;;;;;;;27.74;42.97;94345.22;4986161;28;20046;-76
2021/07/27 05:17:50;;;;;;;16.40;12.82;;;;;;;27.89;43.32;94357.69;4986760;28;20432;-75
2021/07/27 05:20:19;;;;;;;18.20;12.35;;;;;;;27.91;43.40;94363.50;4986197;28;20046;-76
2021/07/27 05:22:44;;;;;;;16.90;12.40;;;;;;;27.92;43.23;94357.69;4987170;28;20081;-75
2021/07/27 05:25:12;;;;;;;19.23;12.48;;;;;;;27.87;42.63;94349.13;4986839;28;20517;-75
2021/07/27 05:27:38;;;;;;;17.90;13.60;;;;;;;27.98;42.65;94353.44;4984974;28;20026;-76
2021/07/27 05:30:04;;;;;;;15.32;11.65;;;;;;;28.03;42.01;94346.84;4982554;28;20487;-76
2021/07/27 05:32:30;;;;;;;19.50;13.10;;;;;;;28.13;42.42;94356.22;4985082;28;20027;-75
2021/07/27 05:34:55;;;;;;;18.70;12.13;;;;;;;28.17;42.44;94346.13;4987010;28;20116;-76
2021/07/27 05:37:21;;;;;;;16.77;12.77;;;;;;;28.34;42.77;94367.91;4984921;28;20045;-76
2021/07/27 05:39:47;;;;;;;21.00;12.40;;;;;;;28.33;42.69;94365.56;4981095;28;20037;-75
2021/07/27 05:42:12;;;;;;;18.63;12.95;;;;;;;28.16;42.29;94328.25;4985463;28;20030;-76
2021/07/27 05:44:38;;;;;;;16.63;12.10;;;;;;;28.40;41.71;94355.44;4984698;28;20619;-76
2021/07/27 05:47:04;;;;;;;20.60;12.57;;;;;;;28.58;41.67;94366.34;4984091;28;20169;-76
2021/07/27 05:49:31;;;;;;;23.38;13.52;;;;;;;28.46;42.59;94363.22;4992309;28;20053;-75
2021/07/27 05:51:56;;;;;;;23.58;12.98;;;;;;;28.50;41.80;94358.56;4986274;28;20092;-76
2021/07/27 05:54:23;;;;;;;19.45;13.10;;;;;;;28.62;41.73;94371.78;4985008;28;20753;-75
2021/07/27 05:56:49;;;;;;;16.05;12.75;;;;;;;28.49;41.27;94357.81;4982230;28;20403;-76
2021/07/27 05:59:16;;;;;;;20.02;12.88;;;;;;;28.66;41.17;94367.88;4985708;28;20041;-75
2021/07/27 06:01:42;;;;;;;22.08;13.18;;;;;;;28.70;41.39;94370.59;4986536;28;20061;-76
2021/07/27 06:04:08;;;;;;;22.33;13.13;;;;;;;28.75;42.51;94365.59;4986834;28;20045;-75
2021/07/27 06:06:33;;;;;;;21.10;12.50;;;;;;;28.73;42.53;94373.38;4986403;28;20041;-76
2021/07/27 06:09:03;;;;;;;26.95;13.77;;;;;;;28.77;41.95;94379.59;4992865;28;20034;-75
2021/07/27 06:11:36;;;;;;;19.80;14.65;;;;;;;28.78;42.05;94381.13;4984296;28;20423;-75
2021/07/27 06:14:04;;;;;;;20.70;12.98;;;;;;;28.72;41.48;94366.38;4985810;28;20404;-76
2021/07/27 06:16:31;;;;;;;21.30;12.98;;;;;;;28.88;42.46;94381.53;4993685;28;20499;-75
2021/07/27 06:18:57;;;;;;;26.17;14.70;;;;;;;28.66;42.19;94357.00;4984967;28;20050;-76
2021/07/27 06:21:22;;;;;;;17.50;13.35;;;;;;;28.56;42.31;94352.34;4983622;28;20401;-76
2021/07/27 06:23:48;;;;;;;19.73;13.32;;;;;;;28.62;42.16;94361.69;4983944;28;20033;-75
2021/07/27 06:26:13;;;;;;;22.45;14.02;;;;;;;28.72;42.42;94352.00;4984932;28;20069;-75
2021/07/27 06:28:39;;;;;;;21.95;13.88;;;;;;;28.86;41.59;94371.00;4983901;28;20565;-76
2021/07/27 06:31:11;;;;;;;20.45;12.88;;;;;;;28.85;41.78;94361.28;4984997;28;20468;-76
2021/07/27 06:33:43;;;;;;;17.38;13.40;;;;;;;28.54;42.53;94364.81;4983756;28;20063;-75
2021/07/27 06:36:09;;;;;;;26.90;14.80;;;;;;;28.58;42.43;94365.56;4985825;28;20041;-76
2021/07/27 06:38:35;;;;;;;23.55;13.32;;;;;;;28.64;42.67;94353.91;4982862;28;20504;-76
2021/07/27 06:41:04;;;;;;;13.60;12.20;;;;;;;28.87;42.43;94360.91;4980878;28;20034;-76
2021/07/27 06:43:29;;;;;;;16.60;13.57;;;;;;;28.74;41.97;94331.38;4984082;28;20591;-75
2021/07/27 06:45:56;;;;;;;18.55;12.63;;;;;;;29.04;42.22;94354.66;4984535;28;20045;-76
2021/07/27 06:48:24;;;;;;;19.13;13.07;;;;;;;29.12;41.12;94361.66;4985225;28;20037;-76
2021/07/27 06:50:50;;;;;;;15.95;13.68;;;;;;;29.20;41.66;94363.19;4985659;28;20121;-76
2021/07/27 06:53:16;;;;;;;18.85;12.20;;;;;;;29.27;42.20;94357.72;4984650;28;20038;-75
2021/07/27 06:55:42;;;;;;;20.00;12.73;;;;;;;29.18;41.73;94368.22;4984583;28;20034;-75
2021/07/27 06:58:07;;;;;;;17.35;12.55;;;;;;;29.09;41.31;94348.81;4989031;28;20105;-76
2021/07/27 07:00:33;;;;;;;20.40;13.48;;;;;;;29.19;41.05;94362.41;4989869;28;20501;-76
2021/07/27 07:02:58;;;;;;;20.63;11.77;;;;;;;29.38;41.78;94347.59;4987418;28;20030;-76
2021/07/27 07:05:23;;;;;;;18.98;12.23;;;;;;;29.58;41.36;94343.22;4991217;28;20030;-76
2021/07/27 07:07:49;;;;;;;16.08;11.82;;;;;;;29.55;41.03;94327.69;4988798;28;20050;-76
2021/07/27 07:10:15;;;;;;;14.35;11.13;;;;;;;29.65;40.23;94340.50;4986696;28;20046;-76
2021/07/27 07:12:40;;;;;;;16.13;12.57;;;;;;;29.59;40.31;94331.16;4987022;28;20767;-77
2021/07/27 07:15:06;;;;;;;19.25;12.30;;;;;;;29.91;39.09;94352.06;4988546;28;20909;-75
2021/07/27 07:17:31;;;;;;;19.67;11.63;;;;;;;30.06;39.61;94348.06;4988676;28;20590;-74
2021/07/27 07:19:57;;;;;;;19.05;11.82;;;;;;;29.96;39.18;94338.00;4985137;28;20038;-74
2021/07/27 07:22:22;;;;;;;15.00;10.40;;;;;;;30.12;38.68;94335.56;4988280;28;20125;-76
2021/07/27 07:24:48;;;;;;;17.05;11.20;;;;;;;30.29;38.19;94342.09;4987329;28;20042;-75
2021/07/27 07:27:14;;;;;;;15.73;11.73;;;;;;;30.22;38.03;94321.09;4983328;28;20455;-75
2021/07/27 07:29:40;;;;;;;12.15;10.90;;;;;;;30.16;38.26;94322.69;4986637;28;20061;-75
2021/07/27 07:32:06;;;;;;;16.50;11.10;;;;;;;30.28;38.48;94329.63;4988887;28;20137;-76
2021/07/27 07:34:32;;;;;;;17.73;12.00;;;;;;;30.18;39.07;94333.19;4988297;28;20050;-76
2021/07/27 07:36:58;;;;;;;15.73;11.05;;;;;;;30.34;38.92;94344.38;4988896;28;20038;-75
2021/07/27 07:39:23;;;;;;;18.50;10.55;;;;;;;30.32;38.07;94339.31;4987803;28;20037;-77
2021/07/27 07:41:49;;;;;;;17.65;12.50;;;;;;;30.37;38.77;94351.75;4990230;28;20031;-76
2021/07/27 07:44:14;;;;;;;22.98;12.50;;;;;;;30.54;39.22;94345.44;4987958;28;20168;-75
2021/07/27 07:46:40;;;;;;;16.00;12.57;;;;;;;30.52;38.79;94353.22;4989133;28;20382;-76
2021/07/27 07:49:08;;;;;;;19.08;11.35;;;;;;;30.62;38.80;94348.88;4987418;28;20516;-76
2021/07/27 07:51:35;;;;;;;16.15;11.48;;;;;;;30.66;38.46;94316.88;4986825;28;20489;-75
2021/07/27 07:54:01;;;;;;;16.73;11.18;;;;;;;30.84;38.33;94344.75;4990061;28;20022;-76
2021/07/27 07:56:26;;;;;;;13.65;12.18;;;;;;;30.62;38.45;94346.91;4987643;28;20067;-76
2021/07/27 07:58:52;;;;;;;18.30;12.07;;;;;;;30.68;38.90;94347.25;4989304;28;20816;-76
2021/07/27 08:01:18;;;;;;;13.73;11.57;;;;;;;30.86;38.52;94342.41;4985106;28;20072;-76
2021/07/27 08:03:43;;;;;;;30.35;12.18;;;;;;;30.94;38.06;94350.13;4987800;28;20092;-76
2021/07/27 08:06:09;;;;;;;14.18;12.68;;;;;;;30.76;38.41;94356.94;4986931;28;20068;-75
2021/07/27 08:08:36;;;;;;;21.45;11.35;;;;;;;31.05;38.63;94341.88;4990663;28;20048;-75
2021/07/27 08:11:03;;;;;;;16.55;12.32;;;;;;;31.31;37.65;94352.13;4986593;28;20086;-76
2021/07/27 08:13:28;;;;;;;20.92;12.43;;;;;;;31.53;36.88;94354.59;4987298;28;20563;-76
2021/07/27 08:15:54;;;;;;;17.75;11.65;;;;;;;31.59;37.30;94355.72;4986830;28;20423;-76
2021/07/27 08:18:20;;;;;;;15.55;11.48;;;;;;;31.71;37.11;94353.25;4986377;28;20497;-75
2021/07/27 08:20:46;;;;;;;17.63;12.05;;;;;;;31.75;36.52;94347.72;4987336;28;20663;-76
2021/07/27 08:23:11;;;;;;;18.83;12.60;;;;;;;31.81;36.70;94346.09;4982566;28;20412;-76
2021/07/27 08:25:37;;;;;;;21.95;12.98;;;;;;;31.92;36.47;94352.16;4986615;28;20042;-75
2021/07/27 08:28:03;;;;;;;19.05;12.73;;;;;;;31.93;36.04;94347.47;4985328;28;20050;-75
2021/07/27 08:30:28;;;;;;;17.73;10.95;;;;;;;31.93;37.00;94353.72;4984583;28;20042;-76
2021/07/27 08:32:54;;;;;;;21.23;12.07;;;;;;;31.87;36.26;94336.22;4984923;28;20026;-75
2021/07/27 08:35:21;;;;;;;18.17;12.70;;;;;;;31.90;36.15;94343.63;4985198;28;20791;-76
2021/07/27 08:37:47;;;;;;;20.73;12.52;;;;;;;31.89;35.78;94349.50;4986395;28;20137;-75
2021/07/27 08:40:16;;;;;;;21.88;11.80;;;;;;;31.93;35.73;94348.25;4988099;28;20049;-75
2021/07/27 08:42:41;;;;;;;20.60;12.48;;;;;;;31.77;36.54;94334.41;4985145;28;20039;-76
2021/07/27 08:45:08;;;;;;;20.25;12.32;;;;;;;31.64;36.16;94352.53;4987554;28;20088;-75
2021/07/27 08:47:35;;;;;;;12.27;10.98;;;;;;;31.81;37.01;94344.09;4985895;28;20057;-76
2021/07/27 08:50:02;;;;;;;13.65;11.52;;;;;;;31.76;36.76;94346.56;4986954;28;20419;-75
2021/07/27 08:52:28;;;;;;;17.10;12.95;;;;;;;31.83;36.03;94336.28;4985869;28;20034;-76
2021/07/27 08:54:53;;;;;;;14.60;11.18;;;;;;;31.76;36.50;94336.41;4986986;28;20072;-77
2021/07/27 08:57:20;;;;;;;20.50;11.80;;;;;;;31.89;36.24;94336.59;5002356;28;20063;-76
2021/07/27 08:59:46;;;;;;;14.93;11.80;;;;;;;31.89;35.75;94342.06;4989148;28;20444;-76
2021/07/27 09:02:11;;;;;;;17.27;11.20;;;;;;;31.85;36.35;94324.94;4986495;28;20374;-76
2021/07/27 09:04:37;;;;;;;20.02;12.45;;;;;;;32.10;36.52;94319.13;4983413;28;20509;-77
2021/07/27 09:07:04;;;;;;;17.15;12.15;;;;;;;32.14;35.39;94309.72;4987206;28;20730;-78
2021/07/27 09:09:36;;;;;;;17.30;13.00;;;;;;;32.35;35.27;94321.53;4986453;28;20034;-77
2021/07/27 09:12:09;;;;;;;22.20;12.32;;;;;;;32.45;34.32;94335.00;4985749;28;20085;-76
2021/07/27 09:14:44;;;;;;;17.75;12.27;;;;;;;32.40;34.71;94312.84;4983145;28;20033;-77
2021/07/27 09:17:10;;;;;;;15.93;11.98;;;;;;;32.52;35.58;94334.13;4986113;28;20038;-76
2021/07/27 09:19:42;;;;;;;20.58;12.93;;;;;;;32.53;35.89;94333.72;4982195;28;20513;-77
2021/07/27 09:22:08;;;;;;;17.42;12.60;;;;;;;32.34;34.66;94319.97;4985920;28;20045;-76
2021/07/27 09:24:35;;;;;;;20.75;13.43;;;;;;;32.63;36.67;94334.75;4982353;28;20046;-75
2021/07/27 09:27:05;;;;;;;20.30;12.23;;;;;;;32.72;34.44;94329.53;4983288;28;20984;-76
2021/07/27 09:29:31;;;;;;;18.27;11.77;;;;;;;32.58;35.42;94319.56;4989171;28;20034;-76
2021/07/27 09:31:58;;;;;;;19.63;12.57;;;;;;;32.57;34.81;94317.25;4985188;28;20413;-75
2021/07/27 09:34:28;;;;;;;18.15;12.52;;;;;;;32.69;34.37;94327.66;4986739;28;20068;-76
2021/07/27 09:37:01;;;;;;;24.45;13.40;;;;;;;32.69;34.36;94324.13;4986439;28;20133;-77
2021/07/27 09:39:26;;;;;;;17.65;12.63;;;;;;;32.78;34.89;94313.41;4985669;28;20050;-75
2021/07/27 09:42:00;;;;;;;20.70;13.13;;;;;;;32.85;34.82;94322.25;4985981;28;20709;-76
2021/07/27 09:44:28;;;;;;;16.60;13.57;;;;;;;32.80;34.50;94330.94;4987871;28;20061;-76
2021/07/27 09:46:58;;;;;;;22.90;13.60;;;;;;;32.66;33.94;94325.72;5001293;28;20277;-75
2021/07/27 09:49:24;;;;;;;24.05;14.55;;;;;;;32.78;34.28;94318.88;4983428;28;21258;-75
2021/07/27 09:51:51;;;;;;;16.65;13.25;;;;;;;32.58;34.41;94291.44;4987030;28;20417;-77
2021/07/27 09:54:23;;;;;;;17.05;12.77;;;;;;;32.69;35.04;94324.13;4985743;28;20041;-75
2021/07/27 09:56:53;;;;;;;16.20;12.52;;;;;;;32.61;35.08;94317.97;4985513;28;20069;-75
2021/07/27 09:59:21;;;;;;;18.27;12.95;;;;;;;32.67;36.23;94327.28;4983969;28;20065;-74
2021/07/27 10:02:06;;;;;;;20.40;13.70;;;;;;;32.75;34.68;94320.47;4993845;28;20034;-76
2021/07/27 10:04:38;;;;;;;16.75;13.02;;;;;;;32.93;36.38;94310.00;4987236;28;20524;-74
2021/07/27 10:07:05;;;;;;;19.35;14.05;;;;;;;32.96;34.00;94317.38;4982194;28;20045;-76
2021/07/27 10:09:32;;;;;;;22.85;12.23;;;;;;;33.04;34.58;94307.06;4985080;28;20118;-76
2021/07/27 10:12:08;;;;;;;20.42;13.00;;;;;;;32.90;33.25;94299.88;4986537;28;20069;-77
2021/07/27 10:14:39;;;;;;;21.00;13.35;;;;;;;33.05;33.52;94309.38;4986831;28;20084;-76
2021/07/27 10:17:05;;;;;;;20.88;14.15;;;;;;;32.97;33.30;94297.03;4987155;28;20503;-76
2021/07/27 10:19:38;;;;;;;17.65;13.40;;;;;;;33.24;35.25;94304.38;5000893;28;20056;-76
2021/07/27 10:22:06;;;;;;;19.20;13.40;;;;;;;33.55;33.89;94304.94;4981895;28;20496;-76
2021/07/27 10:24:43;;;;;;;16.33;12.15;;;;;;;33.68;33.36;94297.63;4981098;28;20509;-76
2021/07/27 10:27:21;;;;;;;19.15;12.95;;;;;;;33.74;33.68;94291.22;4984985;28;20037;-76
2021/07/27 10:29:47;;;;;;;18.05;12.07;;;;;;;33.63;33.94;94293.38;4985158;28;20025;-76
2021/07/27 10:32:12;;;;;;;18.92;12.25;;;;;;;33.51;33.11;94286.59;4983304;28;20501;-76
2021/07/27 10:34:40;;;;;;;18.52;13.48;;;;;;;33.35;32.78;94288.50;4986595;28;20040;-76
2021/07/27 10:37:14;;;;;;;24.27;13.02;;;;;;;33.43;33.31;94292.63;4987945;28;20148;-76
2021/07/27 10:39:52;;;;;;;19.20;12.98;;;;;;;33.57;34.95;94266.94;4986365;28;20129;-77
2021/07/27 10:42:19;;;;;;;18.92;13.23;;;;;;;33.76;32.82;94279.84;4986176;28;20056;-76
2021/07/27 10:44:45;;;;;;;19.35;12.65;;;;;;;33.78;33.02;94272.72;4984132;28;20034;-76
2021/07/27 10:47:25;;;;;;;17.33;12.68;;;;;;;33.99;32.44;94281.69;4986882;28;20045;-76
2021/07/27 10:50:07;;;;;;;15.43;13.18;;;;;;;34.01;31.82;94282.81;4984809;28;20053;-76
2021/07/27 10:52:33;;;;;;;22.15;12.18;;;;;;;34.16;30.42;94272.28;4984816;28;20038;-76
2021/07/27 10:55:00;;;;;;;21.52;12.43;;;;;;;34.29;31.71;94281.41;4986526;28;20115;-77
2021/07/27 10:57:34;;;;;;;17.63;11.18;;;;;;;34.43;31.05;94272.81;4984787;28;20038;-75
2021/07/27 11:00:01;;;;;;;17.48;12.60;;;;;;;34.36;31.17;94272.97;4984595;28;20577;-77
2021/07/27 11:02:27;;;;;;;19.30;11.57;;;;;;;34.52;30.35;94270.25;4985137;28;20563;-76
2021/07/27 11:04:52;;;;;;;16.73;10.40;;;;;;;34.44;30.97;94257.91;4985362;28;20038;-76
2021/07/27 11:07:19;;;;;;;17.25;11.98;;;;;;;34.66;30.17;94267.13;4983272;28;20053;-76
2021/07/27 11:09:58;;;;;;;22.40;12.23;;;;;;;34.78;30.26;94269.22;4983247;28;20469;-77
2021/07/27 11:12:35;;;;;;;15.40;11.30;;;;;;;34.93;29.69;94260.59;4983126;28;20312;-77
2021/07/27 11:15:21;;;;;;;27.08;12.35;;;;;;;34.87;29.54;94256.84;4981942;28;20885;-76
2021/07/27 11:18:00;;;;;;;23.27;11.93;;;;;;;34.95;28.47;94247.19;4986589;28;20153;-76
2021/07/27 11:20:34;;;;;;;17.95;11.40;;;;;;;34.89;28.52;94232.47;4983909;28;20928;-77
2021/07/27 11:23:07;;;;;;;19.65;11.75;;;;;;;35.01;28.78;94259.19;4990731;28;20034;-77
2021/07/27 11:25:33;;;;;;;24.13;11.05;;;;;;;34.98;28.10;94260.06;4987753;28;20169;-76
2021/07/27 11:28:15;;;;;;;21.70;9.80;;;;;;;35.12;28.00;94262.44;4985590;28;20058;-77
2021/07/27 11:30:42;;;;;;;26.73;11.23;;;;;;;35.00;27.71;94252.16;4987815;28;20061;-76
2021/07/27 11:33:11;;;;;;;19.90;10.98;;;;;;;34.92;27.54;94253.56;4980645;28;20161;-76
2021/07/27 11:35:43;;;;;;;18.10;10.75;;;;;;;34.96;29.92;94259.72;4987525;28;20092;-76